Time;durP1;ratioP1;P1;durP2;ratioP2;P2;SDS_P1;SDS_P2;PMS_P1;PMS_P2;Temp;Humidity;BMP_temperature;BMP_pressure;BME280_temperature;BME280_humidity;BME280_pressure;Samples;Min_cycle;Max_cycle;Signal;HPM_P1;HPM_P2
2020/12/29 00:01:01;;;;;;;11.90;10.90;;;-1.70;80.90;;;;;;5120939;28;20054;-71
2020/12/29 00:03:33;;;;;;;11.32;10.40;;;-1.70;80.80;;;;;;5122327;28;20509;-71
2020/12/29 00:06:04;;;;;;;10.82;9.93;;;-1.60;80.80;;;;;;5119931;28;20043;-71
2020/12/29 00:08:36;;;;;;;10.60;9.80;;;-1.50;81.00;;;;;;5122167;28;20055;-71
2020/12/29 00:11:07;;;;;;;10.68;9.88;;;-1.50;81.00;;;;;;5119977;28;20113;-72
2020/12/29 00:13:38;;;;;;;11.77;10.77;;;-1.40;80.60;;;;;;5122261;28;20054;-71
2020/12/29 00:16:10;;;;;;;10.93;10.13;;;-1.30;79.80;;;;;;5120024;28;20118;-72
2020/12/29 00:18:42;;;;;;;11.07;10.27;;;-1.30;80.20;;;;;;5087091;28;20048;-72
2020/12/29 00:21:20;;;;;;;10.65;9.85;;;-1.30;79.80;;;;;;5123455;28;20043;-72
2020/12/29 00:23:52;;;;;;;10.98;10.18;;;-1.30;80.00;;;;;;5119725;28;20043;-70
2020/12/29 00:26:26;;;;;;;10.82;10.02;;;-1.40;79.10;;;;;;5119043;28;20071;-72
2020/12/29 00:28:57;;;;;;;10.70;9.90;;;-1.40;79.30;;;;;;5121160;28;20079;-71
2020/12/29 00:31:29;;;;;;;11.07;10.27;;;-1.40;79.50;;;;;;5119486;28;20043;-71
2020/12/29 00:34:02;;;;;;;10.85;10.05;;;-1.30;79.40;;;;;;5122526;28;20051;-71
2020/12/29 00:36:33;;;;;;;11.18;10.38;;;-1.30;78.70;;;;;;5102435;28;20067;-71
2020/12/29 00:39:05;;;;;;;11.07;10.20;;;-1.40;79.00;;;;;;5121673;28;20078;-72
2020/12/29 00:41:36;;;;;;;11.02;10.13;;;-1.40;79.10;;;;;;5119113;28;20450;-72
2020/12/29 00:44:08;;;;;;;11.23;10.43;;;-1.40;79.30;;;;;;5107644;28;20047;-71
2020/12/29 00:46:39;;;;;;;10.82;10.02;;;-1.40;79.50;;;;;;5104554;28;20043;-72
2020/12/29 00:49:11;;;;;;;11.00;10.20;;;-1.30;79.50;;;;;;5120552;28;20130;-71
2020/12/29 00:51:43;;;;;;;11.43;10.52;;;-1.30;78.90;;;;;;5115297;28;20127;-71
2020/12/29 00:54:14;;;;;;;11.30;10.45;;;-1.30;78.70;;;;;;5123447;28;20054;-71
2020/12/29 00:56:52;;;;;;;11.63;10.73;;;-1.30;78.70;;;;;;5119401;28;20525;-72
2020/12/29 00:59:26;;;;;;;11.55;10.65;;;-1.30;78.10;;;;;;5099663;28;20046;-71
2020/12/29 01:01:59;;;;;;;11.07;10.18;;;-1.30;77.80;;;;;;5089021;28;20035;-72
2020/12/29 01:05:03;;;;;;;10.85;10.00;;;-1.30;77.20;;;;;;5108404;28;20051;-69
2020/12/29 01:07:38;;;;;;;11.05;10.13;;;-1.30;76.50;;;;;;5119314;28;20064;-70
2020/12/29 01:10:09;;;;;;;10.75;9.95;;;-1.40;75.90;;;;;;5116790;28;20043;-70
2020/12/29 01:12:58;;;;;;;10.13;9.32;;;-1.40;76.00;;;;;;5103786;28;20161;-71
2020/12/29 01:15:30;;;;;;;10.40;9.60;;;-1.50;76.20;;;;;;5098821;28;20497;-70
2020/12/29 01:18:10;;;;;;;10.18;9.38;;;-1.50;76.60;;;;;;5116061;28;20055;-70
2020/12/29 01:20:43;;;;;;;10.60;9.80;;;-1.60;76.80;;;;;;5100187;28;20050;-71
2020/12/29 01:23:15;;;;;;;10.75;9.95;;;-1.70;77.40;;;;;;5121131;28;20478;-70
2020/12/29 01:25:48;;;;;;;10.63;9.82;;;-1.80;78.60;;;;;;5120971;28;20074;-70
2020/12/29 01:28:19;;;;;;;10.10;9.40;;;-1.80;78.60;;;;;;5119416;28;20501;-70
2020/12/29 01:30:51;;;;;;;10.55;9.75;;;-1.80;79.20;;;;;;5120935;28;20720;-70
2020/12/29 01:33:22;;;;;;;10.40;9.60;;;-1.80;80.00;;;;;;5121703;28;20043;-70
2020/12/29 01:35:54;;;;;;;10.02;9.32;;;-1.70;80.20;;;;;;5121993;28;20055;-70
2020/12/29 01:38:25;;;;;;;10.52;9.73;;;-1.70;80.10;;;;;;5118783;28;20065;-71
2020/12/29 01:40:59;;;;;;;10.40;9.60;;;-1.60;80.50;;;;;;5120490;28;20911;-71
2020/12/29 01:43:31;;;;;;;11.10;10.30;;;-1.50;80.10;;;;;;5120472;28;20455;-71
2020/12/29 01:46:02;;;;;;;10.68;9.82;;;-1.40;80.10;;;;;;5101041;28;20046;-71
2020/12/29 01:48:34;;;;;;;11.10;10.20;;;-1.40;79.40;;;;;;5118904;28;20083;-70
2020/12/29 01:51:06;;;;;;;10.82;10.02;;;-1.30;79.20;;;;;;5119830;28;20389;-72
2020/12/29 01:53:39;;;;;;;11.00;10.10;;;-1.30;78.70;;;;;;5119697;28;20035;-72
2020/12/29 01:56:13;;;;;;;10.38;9.57;;;-1.40;78.50;;;;;;5120280;28;20078;-72
2020/12/29 01:58:49;;;;;;;10.80;10.00;;;-1.40;79.00;;;;;;5118427;28;20094;-72
2020/12/29 02:01:20;;;;;;;10.73;9.93;;;-1.40;78.70;;;;;;5119255;28;20062;-72
2020/12/29 02:03:54;;;;;;;10.95;10.15;;;-1.60;78.00;;;;;;5119765;28;20549;-72
2020/12/29 02:06:25;;;;;;;10.82;10.02;;;-1.70;79.50;;;;;;5118377;28;20121;-72
2020/12/29 02:08:57;;;;;;;10.02;9.32;;;-1.60;80.00;;;;;;5102748;28;20073;-72
2020/12/29 02:11:28;;;;;;;10.30;9.50;;;-1.60;80.00;;;;;;5104318;28;20083;-72
2020/12/29 02:14:04;;;;;;;10.02;9.32;;;-1.60;80.10;;;;;;5118630;28;20050;-72
2020/12/29 02:16:39;;;;;;;10.45;9.65;;;-1.60;78.40;;;;;;5120438;28;20047;-73
2020/12/29 02:19:11;;;;;;;9.90;9.20;;;-1.60;78.60;;;;;;5118441;28;20071;-72
2020/12/29 02:21:46;;;;;;;10.00;9.30;;;-1.70;78.50;;;;;;5117566;28;20039;-72
2020/12/29 02:24:17;;;;;;;10.18;9.48;;;-1.70;79.20;;;;;;5119037;28;20047;-72
2020/12/29 02:26:49;;;;;;;10.25;9.48;;;-1.60;79.70;;;;;;5103319;28;20509;-72
2020/12/29 02:29:20;;;;;;;10.65;9.73;;;-1.60;79.70;;;;;;5119512;28;20055;-71
2020/12/29 02:31:52;;;;;;;10.80;10.00;;;-1.60;79.00;;;;;;5119581;28;20055;-71
2020/12/29 02:34:23;;;;;;;9.95;9.15;;;-1.60;78.80;;;;;;5119501;28;20047;-71
2020/12/29 02:36:54;;;;;;;10.80;10.00;;;-1.60;79.80;;;;;;5119619;28;20109;-72
2020/12/29 02:39:26;;;;;;;10.48;9.68;;;-1.60;79.50;;;;;;5120689;28;20137;-71
2020/12/29 02:41:57;;;;;;;10.18;9.38;;;-1.50;79.50;;;;;;5120210;28;20658;-71
2020/12/29 02:44:29;;;;;;;10.65;9.85;;;-1.50;79.60;;;;;;5119644;28;20117;-71
2020/12/29 02:47:00;;;;;;;10.52;9.73;;;-1.50;77.30;;;;;;5119475;28;20043;-72
2020/12/29 02:49:33;;;;;;;10.00;9.20;;;-1.70;77.40;;;;;;5119591;28;20051;-71
2020/12/29 02:52:05;;;;;;;10.80;9.90;;;-1.70;78.40;;;;;;5099153;28;20699;-71
2020/12/29 02:54:36;;;;;;;10.88;9.98;;;-1.60;78.20;;;;;;5103546;28;20098;-71
2020/12/29 02:57:08;;;;;;;10.48;9.60;;;-1.50;78.20;;;;;;5100852;28;20058;-71
2020/12/29 02:59:40;;;;;;;10.32;9.50;;;-1.50;77.80;;;;;;5098933;28;20090;-72
2020/12/29 03:02:11;;;;;;;9.93;9.23;;;-1.50;77.30;;;;;;5119592;28;20509;-71
2020/12/29 03:04:43;;;;;;;10.57;9.73;;;-1.50;78.90;;;;;;5119674;28;20062;-71
2020/12/29 03:07:14;;;;;;;10.02;9.23;;;-1.50;78.20;;;;;;5122906;28;20040;-71
2020/12/29 03:09:45;;;;;;;10.27;9.38;;;-1.50;77.10;;;;;;5121987;28;20061;-71
2020/12/29 03:12:17;;;;;;;10.10;9.30;;;-1.60;76.80;;;;;;5122252;28;20074;-71
2020/12/29 03:14:48;;;;;;;9.50;8.80;;;-1.60;77.60;;;;;;5123104;28;20051;-71
2020/12/29 03:17:20;;;;;;;10.00;9.20;;;-1.60;77.30;;;;;;5121269;28;20765;-71
2020/12/29 03:19:51;;;;;;;9.70;8.90;;;-1.60;77.20;;;;;;5124597;28;20043;-72
2020/12/29 03:22:23;;;;;;;10.15;9.25;;;-1.60;76.80;;;;;;5123581;28;20047;-71
2020/12/29 03:24:54;;;;;;;9.95;9.15;;;-1.60;76.60;;;;;;5121824;28;20584;-71
2020/12/29 03:27:26;;;;;;;9.88;9.07;;;-1.60;76.80;;;;;;5106197;28;20130;-72
2020/12/29 03:29:57;;;;;;;10.00;9.20;;;-1.60;75.40;;;;;;5121106;28;20047;-71
2020/12/29 03:32:29;;;;;;;10.05;9.27;;;-1.70;75.20;;;;;;5126217;28;20668;-72
2020/12/29 03:35:00;;;;;;;9.75;9.02;;;-1.80;75.80;;;;;;5122040;28;20450;-71
2020/12/29 03:37:32;;;;;;;9.23;8.52;;;-1.80;75.80;;;;;;5121911;28;20078;-71
2020/12/29 03:40:03;;;;;;;9.40;8.70;;;-1.80;75.40;;;;;;5121101;28;20035;-72
2020/12/29 03:42:35;;;;;;;9.30;8.60;;;-1.80;76.20;;;;;;5121992;28;20699;-71
2020/12/29 03:45:06;;;;;;;9.88;9.07;;;-2.00;74.50;;;;;;5122546;28;20106;-71
2020/12/29 03:47:39;;;;;;;9.02;8.32;;;-2.10;76.40;;;;;;5120703;28;20496;-71
2020/12/29 03:50:10;;;;;;;9.32;8.52;;;-2.00;76.40;;;;;;5123533;28;20481;-71
2020/12/29 03:52:42;;;;;;;9.20;8.40;;;-2.00;76.50;;;;;;5123673;28;20051;-71
2020/12/29 03:55:14;;;;;;;9.02;8.32;;;-2.00;76.40;;;;;;5123698;28;20043;-72
2020/12/29 03:57:46;;;;;;;9.48;8.70;;;-1.90;76.60;;;;;;5121053;28;20038;-71
2020/12/29 04:00:18;;;;;;;9.80;9.00;;;-1.90;76.50;;;;;;5122503;28;20126;-72
2020/12/29 04:02:49;;;;;;;9.98;9.18;;;-1.80;76.30;;;;;;5122273;28;20040;-71
2020/12/29 04:05:21;;;;;;;10.23;9.32;;;-1.80;75.90;;;;;;5119569;28;20043;-71
2020/12/29 04:07:53;;;;;;;9.90;9.10;;;-1.80;75.00;;;;;;5121423;28;20047;-71
2020/12/29 04:10:24;;;;;;;9.95;9.15;;;-1.90;75.70;;;;;;5119124;28;20051;-71
2020/12/29 04:12:56;;;;;;;9.68;8.98;;;-2.00;76.40;;;;;;5121851;28;20521;-72
2020/12/29 04:15:27;;;;;;;9.45;8.75;;;-2.00;77.20;;;;;;5119554;28;20044;-71
2020/12/29 04:17:59;;;;;;;9.35;8.60;;;-2.00;77.30;;;;;;5121179;28;20534;-71
2020/12/29 04:20:31;;;;;;;10.40;9.60;;;-2.00;76.30;;;;;;5120617;28;20133;-71
2020/12/29 04:23:02;;;;;;;9.50;8.80;;;-2.00;76.60;;;;;;5122299;28;20050;-72
2020/12/29 04:25:34;;;;;;;9.32;8.60;;;-2.00;76.50;;;;;;5120825;28;20058;-72
2020/12/29 04:28:05;;;;;;;10.80;9.80;;;-2.00;76.70;;;;;;5120344;28;20046;-71
2020/12/29 04:30:37;;;;;;;11.30;10.15;;;-2.00;76.40;;;;;;5120273;28;20525;-71
2020/12/29 04:33:09;;;;;;;10.18;9.35;;;-2.00;76.10;;;;;;5119838;28;20047;-72
2020/12/29 04:35:41;;;;;;;9.93;9.13;;;-2.00;76.20;;;;;;5104198;28;20117;-73
2020/12/29 04:38:12;;;;;;;9.43;8.73;;;-2.10;77.00;;;;;;5120479;28;20592;-73
2020/12/29 04:40:43;;;;;;;9.70;8.90;;;-2.20;76.50;;;;;;5119581;28;20070;-73
2020/12/29 04:43:15;;;;;;;10.20;9.40;;;-2.20;76.40;;;;;;5120069;28;20051;-73
2020/12/29 04:45:47;;;;;;;9.95;9.10;;;-2.10;75.90;;;;;;5119762;28;20537;-73
2020/12/29 04:48:19;;;;;;;9.55;8.82;;;-2.10;75.70;;;;;;5118383;28;20044;-73
2020/12/29 04:50:52;;;;;;;10.18;9.30;;;-2.20;75.70;;;;;;5118487;28;20050;-73
2020/12/29 04:53:28;;;;;;;9.82;9.02;;;-2.20;75.90;;;;;;5119468;28;20054;-73
2020/12/29 04:56:08;;;;;;;9.68;8.88;;;-2.30;75.50;;;;;;5119950;28;20454;-73
2020/12/29 04:58:40;;;;;;;10.02;9.23;;;-2.30;75.90;;;;;;5115713;28;20039;-74
2020/12/29 05:01:12;;;;;;;9.93;9.13;;;-2.30;75.80;;;;;;5120290;28;20046;-73
2020/12/29 05:03:48;;;;;;;9.82;8.85;;;-2.30;75.60;;;;;;5115974;28;20040;-73
2020/12/29 05:06:22;;;;;;;9.80;9.00;;;-2.40;75.00;;;;;;5119906;28;20043;-72
2020/12/29 05:08:54;;;;;;;9.77;8.88;;;-2.40;75.00;;;;;;5119643;28;20616;-73
2020/12/29 05:11:26;;;;;;;9.82;9.02;;;-2.40;75.00;;;;;;5119490;28;20509;-74
2020/12/29 05:13:58;;;;;;;9.68;8.90;;;-2.40;74.80;;;;;;5119532;28;20047;-73
2020/12/29 05:16:30;;;;;;;8.88;8.18;;;-2.50;75.40;;;;;;5118159;28;20093;-73
2020/12/29 05:19:05;;;;;;;9.00;8.13;;;-2.50;74.20;;;;;;5120300;28;20039;-73
2020/12/29 05:21:38;;;;;;;9.20;8.40;;;-2.60;75.10;;;;;;5119622;28;20062;-73
2020/12/29 05:24:20;;;;;;;8.77;8.07;;;-2.70;73.40;;;;;;5119426;28;20039;-73
2020/12/29 05:26:54;;;;;;;8.75;7.95;;;-2.70;74.10;;;;;;5121534;28;20077;-73
2020/12/29 05:29:27;;;;;;;9.05;8.32;;;-2.90;74.50;;;;;;5118571;28;20058;-74
2020/12/29 05:31:59;;;;;;;8.30;7.60;;;-2.90;74.70;;;;;;5098276;28;20057;-74
2020/12/29 05:34:31;;;;;;;8.20;7.50;;;-2.90;74.30;;;;;;5121192;28;20284;-74
2020/12/29 05:37:02;;;;;;;8.27;7.57;;;-2.90;74.50;;;;;;5119625;28;20500;-74
2020/12/29 05:39:34;;;;;;;8.65;7.85;;;-2.90;75.00;;;;;;5120186;28;20046;-74
2020/12/29 05:42:06;;;;;;;8.95;8.05;;;-2.90;74.90;;;;;;5120413;28;20054;-73
2020/12/29 05:44:40;;;;;;;9.77;8.98;;;-2.90;76.00;;;;;;5119290;28;20035;-73
2020/12/29 05:47:12;;;;;;;8.88;8.18;;;-2.90;77.20;;;;;;5102724;28;20035;-73
2020/12/29 05:49:43;;;;;;;8.85;8.15;;;-2.90;77.20;;;;;;5121195;28;20043;-73
2020/12/29 05:52:15;;;;;;;8.15;7.47;;;-2.90;75.70;;;;;;5122044;28;20134;-73
2020/12/29 05:54:48;;;;;;;8.57;7.88;;;-3.00;75.40;;;;;;5103353;28;20047;-72
2020/12/29 05:57:19;;;;;;;8.57;7.88;;;-3.00;76.40;;;;;;5100536;28;20223;-73
2020/12/29 05:59:51;;;;;;;9.02;8.23;;;-3.10;73.60;;;;;;5119441;28;20046;-73
2020/12/29 06:02:22;;;;;;;9.85;8.98;;;-3.20;75.20;;;;;;5119404;28;20055;-73
2020/12/29 06:04:56;;;;;;;9.23;8.40;;;-3.50;74.90;;;;;;5120495;28;20055;-73
2020/12/29 06:07:31;;;;;;;8.95;8.18;;;-3.60;75.70;;;;;;5119461;28;20543;-73
2020/12/29 06:10:03;;;;;;;9.07;8.07;;;-3.80;75.80;;;;;;5120705;28;20409;-73
2020/12/29 06:12:41;;;;;;;8.85;8.05;;;-3.80;75.60;;;;;;5120551;28;20410;-73
2020/12/29 06:15:21;;;;;;;8.45;7.75;;;-3.70;75.30;;;;;;5120549;28;20054;-74
2020/12/29 06:17:55;;;;;;;8.90;8.00;;;-3.60;74.80;;;;;;5121429;28;20133;-73
2020/12/29 06:20:32;;;;;;;8.52;7.72;;;-3.60;72.90;;;;;;5120885;28;20102;-73
2020/12/29 06:23:06;;;;;;;9.23;8.35;;;-3.60;74.20;;;;;;5121044;28;20047;-73
2020/12/29 06:25:37;;;;;;;8.30;7.50;;;-3.60;74.30;;;;;;5120524;28;20793;-73
2020/12/29 06:28:17;;;;;;;9.10;8.30;;;-3.60;73.80;;;;;;5119610;28;20055;-72
2020/12/29 06:30:52;;;;;;;8.60;7.75;;;-3.50;74.20;;;;;;5119935;28;20047;-73
2020/12/29 06:33:23;;;;;;;8.85;7.68;;;-3.50;73.90;;;;;;5116347;28;20511;-73
2020/12/29 06:35:55;;;;;;;8.25;7.55;;;-3.50;73.80;;;;;;5120733;28;20070;-73
2020/12/29 06:38:29;;;;;;;9.00;8.10;;;-3.50;73.50;;;;;;5119510;28;20051;-73
2020/12/29 06:41:01;;;;;;;8.43;7.63;;;-3.50;73.90;;;;;;5121076;28;20098;-73
2020/12/29 06:43:34;;;;;;;8.68;7.88;;;-3.50;73.60;;;;;;5108383;28;20675;-73
2020/12/29 06:46:13;;;;;;;8.95;8.15;;;-3.50;74.80;;;;;;5122676;28;20047;-73
2020/12/29 06:48:45;;;;;;;9.40;8.50;;;-3.60;74.60;;;;;;5122849;28;20054;-73
2020/12/29 06:51:16;;;;;;;8.65;7.85;;;-3.60;74.80;;;;;;5123729;28;20588;-72
2020/12/29 06:53:48;;;;;;;9.48;8.10;;;-3.60;76.50;;;;;;5124865;28;20043;-73
2020/12/29 06:56:19;;;;;;;9.98;8.95;;;-3.60;76.20;;;;;;5122997;28;20537;-74
2020/12/29 06:58:52;;;;;;;8.60;7.90;;;-3.60;75.90;;;;;;5123126;28;20112;-72
2020/12/29 07:01:25;;;;;;;10.23;7.95;;;-3.50;76.20;;;;;;5123966;28;20513;-72
2020/12/29 07:04:05;;;;;;;10.43;8.63;;;-3.70;75.40;;;;;;5121149;28;20043;-73
2020/12/29 07:06:37;;;;;;;12.02;9.40;;;-3.90;75.50;;;;;;5137370;28;20047;-73
2020/12/29 07:09:14;;;;;;;11.05;9.70;;;-3.80;75.70;;;;;;5123044;28;20118;-73
2020/12/29 07:12:07;;;;;;;11.98;10.10;;;-3.80;75.20;;;;;;5120911;28;20062;-72
2020/12/29 07:14:39;;;;;;;11.70;9.68;;;-3.80;75.40;;;;;;5124462;28;20045;-72
2020/12/29 07:17:12;;;;;;;9.20;8.40;;;-3.70;75.70;;;;;;5120575;28;20051;-72
2020/12/29 07:19:44;;;;;;;10.13;9.18;;;-3.80;76.40;;;;;;5125205;28;20118;-73
2020/12/29 07:22:19;;;;;;;9.85;8.95;;;-3.80;76.20;;;;;;5123614;28;20043;-72
2020/12/29 07:24:50;;;;;;;9.30;8.48;;;-3.70;76.40;;;;;;5120800;28;20418;-73
2020/12/29 07:27:29;;;;;;;9.52;8.65;;;-3.70;75.40;;;;;;5121961;28;20040;-74
2020/12/29 07:30:00;;;;;;;9.07;8.25;;;-3.80;76.20;;;;;;5120329;28;20050;-73
2020/12/29 07:32:32;;;;;;;33.42;18.85;;;-3.80;76.80;;;;;;5123426;28;20047;-73
2020/12/29 07:35:04;;;;;;;30.08;18.30;;;-3.70;76.70;;;;;;5103463;28;20525;-73
2020/12/29 07:37:36;;;;;;;29.23;17.75;;;-3.70;76.50;;;;;;5122017;28;20055;-74
2020/12/29 07:40:08;;;;;;;14.85;11.43;;;-3.60;76.20;;;;;;5120202;28;20043;-73
2020/12/29 07:42:40;;;;;;;13.93;11.45;;;-3.50;77.40;;;;;;5120563;28;20769;-74
2020/12/29 07:45:11;;;;;;;39.97;21.98;;;-3.50;77.90;;;;;;5120469;28;20035;-73
2020/12/29 07:47:42;;;;;;;48.50;24.48;;;-3.40;77.30;;;;;;5121123;28;20671;-73
2020/12/29 07:50:14;;;;;;;93.97;39.70;;;-3.40;77.40;;;;;;5121736;28;20571;-73
2020/12/29 07:52:45;;;;;;;17.50;13.05;;;-3.30;76.90;;;;;;5103485;28;20042;-73
2020/12/29 07:55:17;;;;;;;12.68;11.05;;;-3.40;75.30;;;;;;5121081;28;20687;-73
2020/12/29 07:57:48;;;;;;;11.90;10.70;;;-3.40;76.40;;;;;;5120671;28;20128;-73
2020/12/29 08:00:20;;;;;;;10.05;9.13;;;-3.30;76.00;;;;;;5102893;28;20090;-74
2020/12/29 08:02:52;;;;;;;10.32;9.27;;;-3.30;76.40;;;;;;5121206;28;20121;-74
2020/12/29 08:05:28;;;;;;;10.27;9.38;;;-3.20;79.40;;;;;;5119499;28;20043;-73
2020/12/29 08:08:10;;;;;;;11.05;10.02;;;-3.10;78.80;;;;;;5120425;28;20126;-74
2020/12/29 08:10:44;;;;;;;9.50;8.70;;;-3.00;79.10;;;;;;5119949;28;20522;-73
2020/12/29 08:13:22;;;;;;;12.50;11.05;;;-2.90;80.10;;;;;;5120646;28;20102;-74
2020/12/29 08:15:54;;;;;;;12.90;11.48;;;-2.70;79.10;;;;;;5119368;28;20071;-74
2020/12/29 08:18:25;;;;;;;10.15;9.27;;;-2.50;78.60;;;;;;5119891;28;20042;-73
2020/12/29 08:21:00;;;;;;;16.25;14.70;;;-2.50;79.30;;;;;;5104091;28;20055;-74
2020/12/29 08:23:32;;;;;;;30.08;16.83;;;-2.40;78.70;;;;;;5122695;28;20043;-74
2020/12/29 08:26:03;;;;;;;17.38;14.52;;;-2.30;78.50;;;;;;5120122;28;20425;-74
2020/12/29 08:28:35;;;;;;;14.48;11.63;;;-2.20;77.90;;;;;;5119119;28;20040;-74
2020/12/29 08:31:07;;;;;;;10.23;9.32;;;-2.10;78.10;;;;;;5114693;28;20087;-74
2020/12/29 08:33:41;;;;;;;10.15;9.25;;;-2.10;76.90;;;;;;5120588;28;20141;-74
2020/12/29 08:36:23;;;;;;;10.93;9.82;;;-1.90;76.80;;;;;;5120349;28;20518;-74
2020/12/29 08:39:26;;;;;;;10.23;9.32;;;-1.90;76.80;;;;;;5121520;28;20520;-74
2020/12/29 08:42:01;;;;;;;11.13;9.98;;;-1.80;78.20;;;;;;5116386;28;20075;-74
2020/12/29 08:44:34;;;;;;;11.05;9.85;;;-1.60;76.40;;;;;;5121925;28;20839;-74
2020/12/29 08:47:10;;;;;;;10.23;9.13;;;-1.50;75.00;;;;;;5117668;28;20149;-74
2020/12/29 08:49:42;;;;;;;13.05;10.63;;;-1.50;76.00;;;;;;5117682;28;20134;-75
2020/12/29 08:52:13;;;;;;;11.27;10.13;;;-1.40;76.20;;;;;;5119403;28;20183;-75
2020/12/29 08:54:45;;;;;;;12.55;11.35;;;-1.20;75.50;;;;;;5121353;28;20468;-75
2020/12/29 08:57:17;;;;;;;14.13;12.65;;;-1.20;75.40;;;;;;5118893;28;20043;-75
2020/12/29 08:59:52;;;;;;;13.85;12.43;;;-1.00;74.50;;;;;;5119491;28;20086;-74
2020/12/29 09:02:30;;;;;;;11.80;10.60;;;-0.90;74.70;;;;;;5121376;28;20039;-75
2020/12/29 09:05:01;;;;;;;13.60;12.20;;;-0.80;75.00;;;;;;5120466;28;20086;-75
2020/12/29 09:07:42;;;;;;;13.10;11.90;;;-0.70;73.70;;;;;;5106533;28;20061;-75
2020/12/29 09:10:18;;;;;;;12.77;11.55;;;-0.60;74.60;;;;;;5120418;28;20122;-74
2020/12/29 09:12:49;;;;;;;11.73;9.93;;;-0.50;74.00;;;;;;5120609;28;20071;-75
2020/12/29 09:15:27;;;;;;;14.27;12.77;;;-0.30;74.10;;;;;;5119977;28;20067;-75
2020/12/29 09:17:59;;;;;;;14.60;12.82;;;-0.20;73.20;;;;;;5117876;28;20043;-74
2020/12/29 09:20:32;;;;;;;13.45;12.18;;;-0.10;72.50;;;;;;5121252;28;20454;-74
2020/12/29 09:23:12;;;;;;;12.60;11.40;;;0.00;72.50;;;;;;5121114;28;20126;-73
2020/12/29 09:25:45;;;;;;;12.35;11.07;;;0.00;72.90;;;;;;5085342;28;20089;-74
2020/12/29 09:28:30;;;;;;;11.85;10.55;;;-0.10;71.10;;;;;;5120995;28;20051;-74
2020/12/29 09:31:10;;;;;;;12.20;10.90;;;-0.10;70.90;;;;;;5120662;28;20098;-73
2020/12/29 09:33:42;;;;;;;12.00;10.82;;;-0.30;69.70;;;;;;5117785;28;20047;-74
2020/12/29 09:36:19;;;;;;;12.07;10.68;;;-0.30;71.80;;;;;;5083449;28;20050;-74
2020/12/29 09:38:55;;;;;;;11.50;10.30;;;-0.20;72.20;;;;;;5119497;28;20046;-74
2020/12/29 09:41:26;;;;;;;20.00;14.77;;;-0.20;71.60;;;;;;5115589;28;20544;-74
2020/12/29 09:43:58;;;;;;;16.63;13.77;;;-0.10;72.30;;;;;;5115054;28;20117;-75
2020/12/29 09:46:39;;;;;;;12.90;11.57;;;0.00;72.40;;;;;;5116528;28;20059;-74
2020/12/29 09:49:11;;;;;;;12.98;11.65;;;0.10;71.50;;;;;;5117800;28;20046;-75
2020/12/29 09:51:42;;;;;;;11.65;10.55;;;0.10;70.50;;;;;;5116883;28;20050;-73
2020/12/29 09:54:14;;;;;;;11.27;10.23;;;0.00;69.50;;;;;;5119404;28;20718;-74
2020/12/29 09:56:45;;;;;;;11.07;9.82;;;-0.20;71.10;;;;;;5114083;28;20062;-74
2020/12/29 09:59:17;;;;;;;11.50;10.32;;;-0.30;70.30;;;;;;5120012;28;20051;-74
2020/12/29 10:01:49;;;;;;;11.55;10.43;;;-0.30;71.40;;;;;;5119334;28;20043;-75
2020/12/29 10:04:20;;;;;;;12.05;10.85;;;-0.40;71.40;;;;;;5120146;28;20054;-76
2020/12/29 10:06:52;;;;;;;11.13;10.13;;;-0.30;72.00;;;;;;5120814;28;20055;-75
2020/12/29 10:09:23;;;;;;;12.75;11.65;;;-0.30;71.50;;;;;;5116548;28;20047;-75
2020/12/29 10:11:54;;;;;;;12.82;11.52;;;-0.30;71.60;;;;;;5117243;28;20043;-75
2020/12/29 10:14:26;;;;;;;10.57;9.68;;;-0.30;71.50;;;;;;5119908;28;20292;-75
2020/12/29 10:16:58;;;;;;;11.00;10.02;;;-0.40;70.30;;;;;;5126772;28;20054;-75
2020/12/29 10:19:29;;;;;;;14.27;12.77;;;-0.50;71.90;;;;;;5124963;28;20046;-74
2020/12/29 10:22:01;;;;;;;14.55;13.05;;;-0.50;71.70;;;;;;5122816;28;20130;-73
2020/12/29 10:24:32;;;;;;;14.15;12.80;;;-0.40;71.70;;;;;;5125771;28;20047;-74
2020/12/29 10:27:04;;;;;;;13.30;12.00;;;-0.40;71.30;;;;;;5123434;28;20047;-75
2020/12/29 10:29:35;;;;;;;11.80;10.57;;;-0.40;71.70;;;;;;5124418;28;20052;-74
2020/12/29 10:32:07;;;;;;;10.63;9.63;;;-0.30;71.30;;;;;;5100621;28;20114;-74
2020/12/29 10:34:39;;;;;;;10.85;9.75;;;-0.30;71.50;;;;;;5125484;28;20043;-75
2020/12/29 10:37:10;;;;;;;10.57;9.57;;;-0.40;72.80;;;;;;5107616;28;20080;-75
2020/12/29 10:39:43;;;;;;;12.98;11.57;;;-0.50;73.30;;;;;;5123309;28;20047;-73
2020/12/29 10:42:14;;;;;;;11.48;9.68;;;-0.50;73.10;;;;;;5122336;28;20043;-73
2020/12/29 10:44:46;;;;;;;18.05;13.98;;;-0.50;72.00;;;;;;5125484;28;20047;-74
2020/12/29 10:47:17;;;;;;;13.55;10.80;;;-0.50;72.90;;;;;;5123488;28;20518;-73
2020/12/29 10:49:49;;;;;;;13.43;12.00;;;-0.40;73.20;;;;;;5125621;28;20042;-76
2020/12/29 10:52:20;;;;;;;12.73;11.52;;;-0.30;73.50;;;;;;5121862;28;20043;-75
2020/12/29 10:54:52;;;;;;;11.43;10.32;;;-0.20;72.50;;;;;;5105640;29;20046;-75
2020/12/29 10:57:23;;;;;;;12.10;10.98;;;-0.30;72.90;;;;;;5105707;28;20057;-75
2020/12/29 10:59:55;;;;;;;11.55;10.45;;;-0.20;73.40;;;;;;5123814;28;20601;-75
2020/12/29 11:02:26;;;;;;;14.23;11.38;;;0.00;72.70;;;;;;5121997;28;20047;-75
2020/12/29 11:04:57;;;;;;;13.93;12.30;;;0.10;73.40;;;;;;5126264;28;20718;-74
2020/12/29 11:07:29;;;;;;;12.82;11.52;;;0.20;72.40;;;;;;5108012;28;20049;-75
2020/12/29 11:10:00;;;;;;;13.45;12.10;;;0.30;72.70;;;;;;5124199;28;20106;-75
2020/12/29 11:12:32;;;;;;;12.43;11.10;;;0.30;72.60;;;;;;5106742;28;20473;-74
2020/12/29 11:15:04;;;;;;;13.45;11.02;;;0.40;72.50;;;;;;5086921;28;20110;-73
2020/12/29 11:17:35;;;;;;;13.18;11.88;;;0.50;72.50;;;;;;5124964;28;20591;-72
2020/12/29 11:20:07;;;;;;;12.27;11.02;;;0.60;71.40;;;;;;5105498;28;20050;-73
2020/12/29 11:22:38;;;;;;;12.60;11.38;;;0.80;72.50;;;;;;5124941;28;20114;-75
2020/12/29 11:25:10;;;;;;;13.00;11.70;;;0.90;72.50;;;;;;5106781;28;20090;-75
2020/12/29 11:27:41;;;;;;;12.95;11.60;;;1.00;71.60;;;;;;5120451;28;20102;-77
2020/12/29 11:30:13;;;;;;;13.32;12.02;;;1.20;72.70;;;;;;5101673;28;20079;-77
2020/12/29 11:32:44;;;;;;;11.95;10.77;;;1.30;73.40;;;;;;5119655;28;20043;-73
2020/12/29 11:35:16;;;;;;;11.15;10.13;;;1.50;72.50;;;;;;5119873;28;20075;-74
2020/12/29 11:37:47;;;;;;;10.43;9.52;;;1.60;72.80;;;;;;5121071;28;20054;-73
2020/12/29 11:40:21;;;;;;;9.82;9.02;;;1.80;72.70;;;;;;5122706;28;20043;-75
2020/12/29 11:42:54;;;;;;;9.63;8.93;;;1.90;73.40;;;;;;5122046;28;20035;-75
2020/12/29 11:45:26;;;;;;;9.48;8.68;;;2.10;72.70;;;;;;5121602;28;20070;-74
2020/12/29 11:47:57;;;;;;;10.80;9.80;;;2.10;72.90;;;;;;5120510;28;20893;-74
2020/12/29 11:50:29;;;;;;;14.80;13.40;;;2.20;72.60;;;;;;5119460;28;20119;-74
2020/12/29 11:53:01;;;;;;;12.68;11.48;;;2.40;73.50;;;;;;5100122;28;20755;-77
2020/12/29 11:55:32;;;;;;;14.55;13.05;;;2.50;71.60;;;;;;5118937;28;20050;-77
2020/12/29 11:58:04;;;;;;;13.10;11.63;;;2.50;70.70;;;;;;5120793;28;20047;-77
2020/12/29 12:00:36;;;;;;;12.60;11.57;;;2.60;69.40;;;;;;5119169;28;20544;-73
2020/12/29 12:03:12;;;;;;;12.65;11.55;;;2.60;70.60;;;;;;5120556;28;20042;-76
2020/12/29 12:05:43;;;;;;;12.00;10.90;;;2.60;70.30;;;;;;5119094;28;20044;-76
2020/12/29 12:08:15;;;;;;;11.75;10.70;;;2.60;71.80;;;;;;5122082;28;20051;-73
2020/12/29 12:10:46;;;;;;;14.63;13.13;;;2.70;71.70;;;;;;5118314;28;20047;-75
2020/12/29 12:13:18;;;;;;;13.60;12.20;;;2.70;70.10;;;;;;5121462;28;20691;-73
2020/12/29 12:16:04;;;;;;;13.90;12.50;;;2.80;71.60;;;;;;5120040;28;20043;-74
2020/12/29 12:18:44;;;;;;;13.75;12.45;;;2.80;70.90;;;;;;5119686;28;20074;-75
2020/12/29 12:21:16;;;;;;;12.88;11.77;;;2.90;70.90;;;;;;5121161;28;20125;-74
2020/12/29 12:23:47;;;;;;;11.98;10.88;;;2.90;69.70;;;;;;5103969;28;20058;-75
2020/12/29 12:26:19;;;;;;;12.23;11.13;;;2.90;69.90;;;;;;5102718;28;20747;-75
2020/12/29 12:28:50;;;;;;;12.07;11.05;;;2.90;70.40;;;;;;5105295;28;20047;-76
2020/12/29 12:31:23;;;;;;;10.73;9.82;;;3.00;70.70;;;;;;5117178;28;20070;-77
2020/12/29 12:33:54;;;;;;;11.23;10.27;;;3.00;70.10;;;;;;5121173;28;20568;-77
2020/12/29 12:36:25;;;;;;;11.35;10.35;;;3.00;70.50;;;;;;5122419;28;20073;-78
2020/12/29 12:38:57;;;;;;;12.25;11.25;;;3.00;70.80;;;;;;5102487;28;20082;-76
2020/12/29 12:41:29;;;;;;;14.30;13.00;;;3.10;70.60;;;;;;5118587;28;20055;-75
2020/12/29 12:44:00;;;;;;;15.40;13.82;;;3.10;72.40;;;;;;5121909;28;20106;-74
2020/12/29 12:46:32;;;;;;;11.93;10.93;;;3.10;70.20;;;;;;5116631;28;20130;-74
2020/12/29 12:49:03;;;;;;;12.18;11.18;;;3.10;70.00;;;;;;5119919;28;20046;-75
2020/12/29 12:51:48;;;;;;;11.73;10.75;;;3.00;68.90;;;;;;5116969;28;20349;-74
2020/12/29 12:54:21;;;;;;;11.60;10.50;;;2.90;67.10;;;;;;5121820;28;20042;-73
2020/12/29 12:56:54;;;;;;;12.20;11.20;;;2.80;66.50;;;;;;5120864;28;20430;-73
2020/12/29 12:59:26;;;;;;;12.18;11.18;;;2.70;67.00;;;;;;5123074;28;20098;-74
2020/12/29 13:01:57;;;;;;;11.95;10.77;;;2.70;69.60;;;;;;5098839;28;21391;-74
2020/12/29 13:04:29;;;;;;;11.80;10.80;;;2.80;70.00;;;;;;5119006;28;20043;-74
2020/12/29 13:07:00;;;;;;;13.82;12.40;;;2.90;70.90;;;;;;5117500;28;20055;-71